createdAt,value
2022-08-17T00:04:34.097Z,3.67
2022-08-17T00:09:47.762Z,4.40
2022-08-17T00:14:54.808Z,4.22
2022-08-17T00:25:20.457Z,4.00
2022-08-17T00:30:29.630Z,4.47
2022-08-17T00:35:48.999Z,4.40
2022-08-17T00:41:04.618Z,4.10
2022-08-17T00:46:22.030Z,3.95
2022-08-17T00:51:44.426Z,3.72
2022-08-17T00:56:58.402Z,3.35
2022-08-17T01:05:25.622Z,4.40
2022-08-17T01:10:58.797Z,3.78
2022-08-17T01:16:09.233Z,3.58
2022-08-17T01:21:24.911Z,4.10
2022-08-17T01:26:30.286Z,3.78
2022-08-17T01:31:38.779Z,3.90
2022-08-17T01:36:44.679Z,4.32
2022-08-17T01:41:53.405Z,4.13
2022-08-17T01:46:59.731Z,4.93
2022-08-17T01:52:11.589Z,4.55
2022-08-17T01:57:18.212Z,4.22
2022-08-17T02:02:30.335Z,5.30
2022-08-17T02:07:59.534Z,4.28
2022-08-17T02:13:04.555Z,5.20
2022-08-17T02:18:09.142Z,5.18
2022-08-17T02:23:17.678Z,4.07
2022-08-17T02:28:21.582Z,3.92
2022-08-17T02:33:41.982Z,3.88
2022-08-17T02:39:12.065Z,4.40
2022-08-17T02:49:54.078Z,4.82
2022-08-17T02:55:02.361Z,4.78
2022-08-17T03:00:35.840Z,4.22
2022-08-17T03:05:49.040Z,5.18
2022-08-17T03:11:02.606Z,4.97
2022-08-17T03:16:08.526Z,5.78
2022-08-17T03:21:14.126Z,5.10
2022-08-17T03:26:32.261Z,5.25
2022-08-17T03:31:36.905Z,4.80
2022-08-17T03:36:49.272Z,5.20
2022-08-17T03:41:53.414Z,4.28
2022-08-17T03:47:16.768Z,4.70
2022-08-17T03:52:39.244Z,5.13
2022-08-17T03:57:57.911Z,5.38
2022-08-17T04:03:27.667Z,5.72
2022-08-17T04:08:43.092Z,4.55
2022-08-17T04:13:49.052Z,4.88
2022-08-17T04:18:54.893Z,5.40
2022-08-17T04:24:11.071Z,4.85
2022-08-17T04:29:26.867Z,4.47
2022-08-17T04:34:56.701Z,4.53
2022-08-17T04:40:29.587Z,4.32
2022-08-17T04:45:57.027Z,4.68
2022-08-17T04:51:03.911Z,4.57
2022-08-17T05:01:29.207Z,3.87
2022-08-17T05:06:46.737Z,3.90
2022-08-17T05:17:11.738Z,4.50
2022-08-17T05:22:21.647Z,4.55
2022-08-17T05:27:35.302Z,4.32
2022-08-17T05:32:57.680Z,4.22
2022-08-17T05:38:01.210Z,5.35
2022-08-17T05:43:44.723Z,4.60
2022-08-17T05:48:57.078Z,4.57
2022-08-17T05:54:45.536Z,5.40
2022-08-17T06:00:33.309Z,4.13
2022-08-17T06:11:53.464Z,4.50
2022-08-17T06:17:06.310Z,4.40
2022-08-17T06:22:18.145Z,4.78
2022-08-17T06:27:48.036Z,4.63
2022-08-17T06:33:08.105Z,4.45
2022-08-17T06:38:37.374Z,4.82
2022-08-17T06:50:24.155Z,4.28
2022-08-17T07:08:51.195Z,3.38
2022-08-17T07:26:21.472Z,3.83
2022-08-17T07:31:34.107Z,4.35
2022-08-17T07:36:47.362Z,3.70
2022-08-17T07:42:09.779Z,3.85
2022-08-17T07:47:39.097Z,3.72
2022-08-17T07:52:51.638Z,3.70
2022-08-17T07:58:08.155Z,3.97
2022-08-17T08:03:36.850Z,3.90
2022-08-17T08:09:01.905Z,4.28
2022-08-17T08:14:36.577Z,4.50
2022-08-17T08:19:49.181Z,4.50
2022-08-17T08:25:22.564Z,4.30
2022-08-17T08:30:33.590Z,4.22
2022-08-17T08:36:04.374Z,4.07
2022-08-17T08:42:11.523Z,4.22
2022-08-17T08:48:12.766Z,4.10
2022-08-17T08:53:52.866Z,3.85
2022-08-17T09:05:44.282Z,4.20
2022-08-17T09:11:12.338Z,4.45
2022-08-17T09:16:37.634Z,4.63
2022-08-17T09:22:04.351Z,4.43
2022-08-17T09:27:24.385Z,4.80
2022-08-17T09:32:54.188Z,4.97
2022-08-17T09:38:46.806Z,4.78
2022-08-17T09:44:23.060Z,4.63
2022-08-17T09:49:58.384Z,4.57
2022-08-17T09:55:05.034Z,3.75
2022-08-17T10:00:33.809Z,4.45
2022-08-17T10:06:10.649Z,4.20
2022-08-17T10:12:06.369Z,3.80
2022-08-17T10:17:31.655Z,4.45
2022-08-17T10:23:13.939Z,4.20
2022-08-17T10:28:33.851Z,4.65
2022-08-17T10:34:41.558Z,5.22
2022-08-17T10:40:02.988Z,4.53
2022-08-17T10:45:31.037Z,5.20
2022-08-17T10:56:29.396Z,4.90
2022-08-17T11:01:48.408Z,4.60
2022-08-17T11:07:44.048Z,4.30
2022-08-17T11:13:45.331Z,3.63
2022-08-17T11:19:24.165Z,4.25
2022-08-17T11:24:39.741Z,4.55
2022-08-17T11:30:13.048Z,3.55
2022-08-17T11:35:41.870Z,3.58
2022-08-17T11:41:17.087Z,4.95
2022-08-17T11:47:19.414Z,4.40
2022-08-17T11:52:46.961Z,4.07
2022-08-17T11:58:03.439Z,3.42
2022-08-17T12:03:55.374Z,3.72
2022-08-17T12:09:35.213Z,4.18
2022-08-17T12:20:45.293Z,4.10
2022-08-17T12:31:35.099Z,3.35
2022-08-17T12:36:50.995Z,3.70
2022-08-17T12:42:10.124Z,3.15
2022-08-17T12:47:32.296Z,3.63
2022-08-17T12:52:49.117Z,3.03
2022-08-17T12:58:38.841Z,3.30
2022-08-17T13:04:03.078Z,4.30
2022-08-17T13:14:49.715Z,4.20
2022-08-17T13:19:54.315Z,3.97
2022-08-17T13:25:09.499Z,3.70
2022-08-17T13:36:33.266Z,3.63
2022-08-17T13:41:41.365Z,3.75
2022-08-17T13:47:21.044Z,3.38
2022-08-17T13:52:52.235Z,3.92
2022-08-17T13:58:06.559Z,3.90
2022-08-17T14:03:19.343Z,3.65
2022-08-17T14:08:22.549Z,3.67
2022-08-17T14:13:40.354Z,3.38
2022-08-17T14:18:57.044Z,3.40
2022-08-17T14:24:00.704Z,3.72
2022-08-17T14:29:02.967Z,3.30
2022-08-17T14:34:11.077Z,3.70
2022-08-17T14:39:22.296Z,3.78
2022-08-17T14:44:30.951Z,4.13
2022-08-17T14:49:34.457Z,3.42
2022-08-17T14:54:40.197Z,3.67
2022-08-17T14:59:58.625Z,3.92
2022-08-17T15:10:32.489Z,3.58
2022-08-17T15:15:38.559Z,3.60
2022-08-17T15:20:54.188Z,3.67
2022-08-17T15:26:07.136Z,3.95
2022-08-17T15:31:18.944Z,4.20
2022-08-17T15:36:45.486Z,3.83
2022-08-17T15:42:03.208Z,3.88
2022-08-17T15:47:09.583Z,3.80
2022-08-17T15:52:32.151Z,3.67
2022-08-17T15:57:40.329Z,3.53
2022-08-17T16:03:47.144Z,4.07
2022-08-17T16:08:21.472Z,4.00
2022-08-17T16:13:32.479Z,3.90
2022-08-17T16:24:29.319Z,3.90
2022-08-17T16:29:34.950Z,3.50
2022-08-17T16:34:47.845Z,4.18
2022-08-17T16:39:57.074Z,4.00
2022-08-17T16:45:30.919Z,3.83
2022-08-17T16:56:03.334Z,3.00
2022-08-17T17:01:05.836Z,4.15
2022-08-17T17:06:29.923Z,3.42
2022-08-17T17:11:53.187Z,3.40
2022-08-17T17:17:16.376Z,3.90
2022-08-17T17:22:39.619Z,4.03
2022-08-17T17:28:15.217Z,3.80
2022-08-17T17:39:48.900Z,3.50
2022-08-17T17:45:24.010Z,3.05
2022-08-17T17:51:54.764Z,3.17
2022-08-17T17:57:37.146Z,3.17
2022-08-17T18:02:54.831Z,2.92
2022-08-17T18:08:46.675Z,3.60
2022-08-17T18:14:46.201Z,3.03
2022-08-17T18:19:53.048Z,2.90
2022-08-17T18:25:00.573Z,3.10
2022-08-17T18:30:23.409Z,2.95
2022-08-17T18:35:46.387Z,3.50
2022-08-17T18:41:23.838Z,3.23
2022-08-17T18:46:36.182Z,4.10
2022-08-17T18:51:43.626Z,3.83
2022-08-17T18:57:02.649Z,3.90
2022-08-17T19:02:38.773Z,3.53
2022-08-17T19:07:51.496Z,4.40
2022-08-17T19:13:49.968Z,4.57
2022-08-17T19:19:18.067Z,5.10
2022-08-17T19:24:30.267Z,5.53
2022-08-17T19:29:54.810Z,5.38
2022-08-17T19:35:19.465Z,5.32
2022-08-17T19:41:01.319Z,5.45
2022-08-17T19:46:26.123Z,5.75
2022-08-17T19:58:09.495Z,7.72
2022-08-17T20:09:17.745Z,6.18
2022-08-17T20:15:05.317Z,5.75
2022-08-17T20:20:54.684Z,5.43
2022-08-17T20:26:19.293Z,5.22
2022-08-17T20:32:06.736Z,5.38
2022-08-17T20:37:21.891Z,5.35
2022-08-17T20:42:34.087Z,5.40
2022-08-17T20:48:22.111Z,6.43
2022-08-17T20:53:55.231Z,6.90
2022-08-17T20:59:06.861Z,6.38
2022-08-17T21:04:52.367Z,5.47
2022-08-17T21:10:19.742Z,4.88
2022-08-17T21:16:12.992Z,5.55
2022-08-17T21:21:52.264Z,5.13
2022-08-17T21:27:26.111Z,5.82
2022-08-17T21:32:44.982Z,5.22
2022-08-17T21:38:07.242Z,5.30
2022-08-17T21:43:32.172Z,5.50
2022-08-17T21:48:48.573Z,5.18
2022-08-17T21:54:06.226Z,5.80
2022-08-17T22:00:09.186Z,5.00
2022-08-17T22:05:14.578Z,4.78
2022-08-17T22:10:41.477Z,4.50
2022-08-17T22:15:54.382Z,4.65
2022-08-17T22:21:12.739Z,4.80
2022-08-17T22:26:28.782Z,5.63
2022-08-17T22:32:01.322Z,4.88
2022-08-17T22:37:51.145Z,5.20
2022-08-17T22:42:58.279Z,4.63
2022-08-17T22:48:08.170Z,5.45
2022-08-17T22:53:42.932Z,6.13
2022-08-17T22:59:32.623Z,6.40
2022-08-17T23:04:47.380Z,6.95
2022-08-17T23:09:54.918Z,5.70
2022-08-17T23:15:07.424Z,6.03
2022-08-17T23:20:23.437Z,6.28
2022-08-17T23:25:37.411Z,6.70
2022-08-17T23:30:45.418Z,6.53
2022-08-17T23:35:49.409Z,5.85
2022-08-17T23:40:54.469Z,5.90
2022-08-17T23:46:08.190Z,5.65
2022-08-17T23:51:17.056Z,6.10
2022-08-17T23:56:30.834Z,6.82
